GW0388 Weather Reports


Display with metric or nautical units.
time (UTC)temp
F
wind
direction
speed
MPH
gust
MPH
rain 1hr
in
rain 24hr
in
rain mn
in
humidity
%
barometer
mb
20220627023039 100 213 0.0 3.0 0.00 0.00 0.00 22 1011.6
20220627021539 99 0 1.0 3.0 0.00 0.00 0.00 19 1011.5
20220627020059 99 348 1.0 4.0 0.00 0.00 0.00 19 1011.5
20220627014541 98 11 2.0 4.0 0.00 0.00 0.00 19 1011.5
20220627013059 99 10 2.0 5.0 0.00 0.00 0.00 19 1011.5
20220627011604 98 51 2.0 7.0 0.00 0.00 0.00 19 1011.5
20220627010054 98 20 3.0 7.0 0.00 0.00 0.00 19 1011.7
20220627004534 98 329 2.0 8.0 0.00 0.00 0.00 20 1011.8
20220627003035 98 335 2.0 5.0 0.00 0.00 0.00 20 1011.9
20220627001547 98 74 3.0 9.0 0.00 0.00 0.00 19 1011.8
20220627000040 98 77 3.0 9.0 0.00 0.00 0.00 19 1012.0
20220626234602 98 322 1.0 8.0 0.00 0.00 0.00 19 1012.2
20220626233056 97 342 3.0 8.0 0.00 0.00 0.00 20 1012.4
20220626231544 97 328 3.0 6.0 0.00 0.00 0.00 21 1012.5
20220626230101 98 90 2.0 7.0 0.00 0.00 0.00 20 1012.6
20220626224558 98 352 2.0 7.0 0.00 0.00 0.00 19 1012.7
20220626223106 96 38 3.0 6.0 0.00 0.00 0.00 21 1012.7
20220626221541 96 296 2.0 9.0 0.00 0.00 0.00 21 1012.7
20220626220059 95 57 3.0 9.0 0.00 0.00 0.00 21 1012.8
20220626214543 95 360 3.0 9.0 0.00 0.00 0.00 21 1012.9
20220626213052 95 348 4.0 8.0 0.00 0.00 0.00 22 1013.0
20220626211549 94 25 2.0 9.0 0.00 0.00 0.00 22 1013.1
20220626210053 94 352 3.0 10.0 0.00 0.00 0.00 23 1013.2
20220626204553 93 52 3.0 10.0 0.00 0.00 0.00 24 1013.3
20220626203047 92 18 3.0 10.0 0.00 0.00 0.00 24 1013.5
20220626201545 92 344 3.0 13.0 0.00 0.00 0.00 24 1013.5
20220626200048 92 52 3.0 11.0 0.00 0.00 0.00 24 1013.7
20220626194548 91 78 4.0 10.0 0.00 0.00 0.00 23 1014.0
20220626193044 91 71 3.0 9.0 0.00 0.00 0.00 24 1014.0
20220626191541 90 17 5.0 11.0 0.00 0.00 0.00 25 1014.0
20220626190046 89 49 4.0 9.0 0.00 0.00 0.00 25 1014.1
20220626184541 88 338 6.0 11.0 0.00 0.00 0.00 25 1014.2
20220626183050 88 50 3.0 9.0 0.00 0.00 0.00 26 1014.3
20220626181535 88 53 3.0 12.0 0.00 0.00 0.00 27 1014.5
20220626180044 86 27 4.0 8.0 0.00 0.00 0.00 29 1014.7
20220626174538 86 36 4.0 10.0 0.00 0.00 0.00 29 1014.6
20220626173038 86 12 4.0 9.0 0.00 0.00 0.00 28 1014.7
20220626171541 84 5 3.0 10.0 0.00 0.00 0.00 29 1014.8
20220626170050 84 17 3.0 8.0 0.00 0.00 0.00 28 1014.7
20220626164538 82 302 3.0 11.0 0.00 0.00 0.00 28 1014.9
20220626163038 82 327 4.0 9.0 0.00 0.00 0.00 27 1015.1
20220626161542 81 281 2.0 8.0 0.00 0.00 0.00 32 1015.0
20220626160105 80 5 1.0 7.0 0.00 0.00 0.00 36 1015.4
20220626154539 79 335 2.0 5.0 0.00 0.00 0.00 39 1015.3
20220626153040 77 351 2.0 4.0 0.00 0.00 0.00 43 1015.4
20220626151551 73 0 1.0 4.0 0.00 0.00 0.00 51 1015.3
20220626150054 69 221 0.0 3.0 0.00 0.00 0.00 63 1015.4
20220626144551 67 82 0.0 1.0 0.00 0.00 0.00 62 1015.5
20220626143103 65 0 1.0 3.0 0.00 0.00 0.00 68 1015.5
20220626141546 63 0 0.0 1.0 0.00 0.00 0.00 67 1015.4
20220626140038 62 0 0.0 1.0 0.00 0.00 0.00 67 1015.2
20220626134533 60 0 0.0 2.0 0.00 0.00 0.00 73 1015.2
20220626133042 59 0 0.0 1.0 0.00 0.00 0.00 72 1015.1
20220626131536 58 0 0.0 1.0 0.00 0.00 0.00 75 1015.0
20220626130048 57 0 0.0 2.0 0.00 0.00 0.00 76 1015.2
20220626124547 57 0 0.0 1.0 0.00 0.00 0.00 77 1015.2
20220626123045 57 0 0.0 2.0 0.00 0.00 0.00 76 1015.3
20220626121540 57 0 0.0 2.0 0.00 0.00 0.00 75 1015.4
20220626120037 57 0 0.0 3.0 0.00 0.00 0.00 75 1015.2
20220626114546 58 0 0.0 1.0 0.00 0.00 0.00 75 1015.3
20220626113046 58 0 0.0 1.0 0.00 0.00 0.00 74 1015.3
20220626111545 58 291 0.0 2.0 0.00 0.00 0.00 74 1015.2
20220626110051 58 0 0.0 2.0 0.00 0.00 0.00 73 1015.3
20220626104555 59 0 0.0 1.0 0.00 0.00 0.00 72 1015.3
20220626103043 59 0 0.0 2.0 0.00 0.00 0.00 71 1015.3
20220626101548 59 0 0.0 1.0 0.00 0.00 0.00 70 1015.4
20220626100048 60 0 0.0 2.0 0.00 0.00 0.00 69 1015.3
20220626094545 61 267 0.0 2.0 0.00 0.00 0.00 68 1015.3
20220626093052 62 323 0.0 2.0 0.00 0.00 0.00 66 1015.4
20220626091551 62 342 0.0 2.0 0.00 0.00 0.00 66 1015.5
20220626090049 62 0 0.0 2.0 0.00 0.00 0.00 66 1015.5
20220626084551 63 0 0.0 2.0 0.00 0.00 0.00 64 1015.5
20220626083050 64 319 0.0 2.0 0.00 0.00 0.00 62 1015.4
20220626081559 64 0 0.0 3.0 0.00 0.00 0.00 62 1015.5
20220626080047 65 0 0.0 2.0 0.00 0.00 0.00 62 1015.5
20220626074548 65 0 0.0 3.0 0.00 0.00 0.00 61 1015.4
20220626073053 64 227 0.0 2.0 0.00 0.00 0.00 62 1015.5
20220626071555 65 221 1.0 3.0 0.00 0.00 0.00 60 1015.4
20220626070057 67 229 0.0 3.0 0.00 0.00 0.00 57 1015.6
20220626064542 68 241 1.0 3.0 0.00 0.00 0.00 54 1015.5
20220626063037 69 0 1.0 3.0 0.00 0.00 0.00 50 1015.6
20220626061537 72 234 0.0 3.0 0.00 0.00 0.00 47 1015.5
20220626060041 78 0 1.0 5.0 0.00 0.00 0.00 35 1015.5
20220626054552 79 22 2.0 5.0 0.00 0.00 0.00 31 1015.4
20220626053052 79 329 1.0 5.0 0.00 0.00 0.00 31 1015.2
20220626051547 79 360 2.0 5.0 0.00 0.00 0.00 31 1015.2
20220626050051 79 315 2.0 4.0 0.00 0.00 0.00 31 1015.0
20220626044545 80 42 2.0 5.0 0.00 0.00 0.00 31 1014.9
20220626043105 80 17 2.0 5.0 0.00 0.00 0.00 31 1014.9
20220626041555 81 336 2.0 5.0 0.00 0.00 0.00 30 1014.7
20220626040106 83 5 2.0 7.0 0.00 0.00 0.00 28 1014.7
20220626034556 84 320 2.0 7.0 0.00 0.00 0.00 27 1014.5
20220626033046 86 346 3.0 9.0 0.00 0.00 0.00 25 1014.4
20220626031537 87 30 2.0 9.0 0.00 0.00 0.00 23 1014.3
20220626030045 89 11 2.0 10.0 0.00 0.00 0.00 24 1014.2
20220626024547 89 56 4.0 9.0 0.00 0.00 0.00 23 1014.1